Iblea — IBFK — position and weather

sailwx.info

Track history (hours):
 
Tides and Currents Weather Stations Pressure Air Temp Water Temp Dewpoint Dewpoint Depression Visibility Wind Speed Wind Dir Waves Ship Positions

Iblea

Last reported at 2016-Jul-27 01:23 UTC. Time now 2016-Jul-27 09:38 UTC.
Position N 37°17' E 006°28'.

Length 176 m; draft 10.3 m.

Type: Ship. MMSI: 247087700.

Date/timePositionNaut miles runAvg speedWind from/ knotsBaromVisibWave heightAir tempDewpointWater temp
2016-Jul-27 01:23N 37°17' E 006°28'11713.2
2016-Jul-26 16:33N 37°07' E 004°02'1312.7
2016-Jul-26 15:33N 37°06' E 003°46'1313.2
2016-Jul-26 14:33N 37°05' E 003°29'1313.5
2016-Jul-26 13:33N 37°03' E 003°13'1313.3
2016-Jul-26 12:33N 37°02' E 002°56'1312.9
2016-Jul-26 11:33N 36°60' E 002°40'1312.8
2016-Jul-26 10:33N 36°57' E 002°25'1812.9
2016-Jul-26 09:11N 36°53' E 002°03'812.7
2016-Jul-26 08:33N 36°51' E 001°53'1413.5
2016-Jul-26 07:32N 36°48' E 001°36'1413.6
2016-Jul-26 06:31N 36°45' E 001°20'1313.5
2016-Jul-26 05:33N 36°43' E 001°04'1313.1
2016-Jul-26 04:32N 36°40' E 000°47'1313.1
2016-Jul-26 03:33N 36°37' E 000°32'1513.4
2016-Jul-26 02:24N 36°34' E 000°13'1213.6
2016-Jul-26 01:33N 36°31' W 000°01'1313.4
2016-Jul-26 00:33N 36°29' W 000°17'1312.9
2016-Jul-25 23:33N 36°26' W 000°33'1313.1
2016-Jul-25 22:33N 36°23' W 000°49'1312.6
2016-Jul-25 21:33N 36°20' W 001°04'1312.6
2016-Jul-25 20:33N 36°18' W 001°20'3912.6
2016-Jul-25 17:29N 36°09' W 002°06'14613.0
2016-Jul-25 06:11N 35°59' W 005°07'914.6
2016-Jul-25 05:33N 35°59' W 005°18'2511.7
2016-Jul-25 03:26N 35°54' W 005°48'910.6
2016-Jul-25 02:33N 35°54' W 006°00'3711.1
2016-Jul-24 23:11N 35°59' W 006°46'1911.6
2016-Jul-24 21:31N 36°04' W 007°09'1212.5
2016-Jul-24 20:33N 36°07' W 007°24'1312.5
2016-Jul-24 19:32N 36°10' W 007°39'1512.8
2016-Jul-24 18:23N 36°13' W 007°57'9612.0
2016-Jul-24 10:22N 36°60' W 009°42'1413.2
2016-Jul-24 09:20N 37°13' W 009°46'1413.1
2016-Jul-24 08:16N 37°27' W 009°50'1013.2
2016-Jul-24 07:30N 37°36' W 009°53'1213.3
2016-Jul-24 06:33N 37°49' W 009°56'1313.1
2016-Jul-24 05:33N 38°01' W 009°60'1313.1
2016-Jul-24 04:33N 38°14' W 010°04'1413.6
2016-Jul-24 03:33N 38°27' W 010°07'1414.1
2016-Jul-24 02:33N 38°41' W 010°11'1313.3
2016-Jul-24 01:34N 38°54' W 010°11'2713.3
2016-Jul-23 23:30N 39°22' W 010°11'62112.9
2016-Jul-21 23:16N 49°06' W 005°17'1213.2
2016-Jul-21 22:21N 49°12' W 005°02'1113.3
2016-Jul-21 21:32N 49°18' W 004°47'1413.5
2016-Jul-21 20:32N 49°24' W 004°29'1312.5
2016-Jul-21 19:28N 49°31' W 004°12'1112.0
2016-Jul-21 18:33N 49°36' W 003°57'1212.1
2016-Jul-21 17:33N 49°42' W 003°40'1312.8
2016-Jul-21 16:33N 49°48' W 003°23'1414.2
2016-Jul-21 15:33N 49°55' W 003°04'1615.5
2016-Jul-21 14:33N 50°01' W 002°41'1816.1
2016-Jul-21 13:25N 50°06' W 002°14'6911.7
2016-Jul-21 07:33N 50°24' W 000°30'1312.5
2016-Jul-21 06:29N 50°28' W 000°10'1313.6
2016-Jul-21 05:34N 50°32' E 000°09'1414.2
2016-Jul-21 04:33N 50°35' E 000°31'1813.6
2016-Jul-21 03:13N 50°45' E 000°55'812.5
2016-Jul-21 02:33N 50°51' E 001°05'1111.4
2016-Jul-21 01:34N 50°59' E 001°18'1010.0
2016-Jul-21 00:34N 51°05' E 001°30'9 9.3
2016-Jul-20 23:33N 51°11' E 001°42'1111.3
2016-Jul-20 22:33N 51°20' E 001°52'1010.5
2016-Jul-20 21:33N 51°23' E 002°08'1212.4
2016-Jul-20 20:33N 51°22' E 002°28'1312.5
2016-Jul-20 19:33N 51°22' E 002°48'1212.4
2016-Jul-20 18:34N 51°24' E 003°07'1414.2
2016-Jul-20 17:33N 51°25' E 003°30'10 9.8
2016-Jul-20 16:33N 51°22' E 003°45'1110.9
2016-Jul-20 15:33N 51°26' E 004°01'8 8.1
2016-Jul-20 14:33N 51°22' E 004°13'7 7.2
2016-Jul-20 13:33N 51°17' E 004°20'0 0.5
2016-Jul-20 12:34N 51°16' E 004°21'1 0.5
2016-Jul-20 11:31N 51°16' E 004°21'0 0.0
2016-Jul-20 10:31N 51°16' E 004°21'0 0.0
2016-Jul-20 09:31N 51°16' E 004°21'0 0.0
2016-Jul-20 08:31N 51°16' E 004°21'0 0.0
2016-Jul-20 07:30N 51°16' E 004°21'0 0.0
2016-Jul-20 06:33N 51°16' E 004°21'0 0.0
2016-Jul-20 05:33N 51°16' E 004°21'0 0.0
2016-Jul-20 04:33N 51°16' E 004°21'0 0.0
2016-Jul-20 03:33N 51°16' E 004°21'0 0.0
2016-Jul-20 02:33N 51°16' E 004°21'0 0.0
2016-Jul-20 01:33N 51°16' E 004°21'0 0.0
2016-Jul-20 00:33N 51°16' E 004°21'0 0.0
2016-Jul-19 23:33N 51°16' E 004°21'0 0.0
2016-Jul-19 22:33N 51°16' E 004°21'0 0.0
2016-Jul-19 21:33N 51°16' E 004°21'0 0.0
2016-Jul-19 20:30N 51°16' E 004°21'0 0.0
2016-Jul-19 19:33N 51°16' E 004°21'0 0.0
2016-Jul-19 18:33N 51°16' E 004°21'0 0.0
2016-Jul-19 17:33N 51°16' E 004°21'0 0.0
2016-Jul-19 16:33N 51°16' E 004°21'0 0.0
2016-Jul-19 15:33N 51°16' E 004°21'0 0.0
2016-Jul-19 14:33N 51°16' E 004°21'0 0.0
2016-Jul-19 13:33N 51°16' E 004°21'0 0.0
2016-Jul-19 12:30N 51°16' E 004°21'0 0.0
2016-Jul-19 11:33N 51°16' E 004°21'0 0.0
2016-Jul-19 10:33N 51°16' E 004°21'0 0.0
2016-Jul-19 09:33N 51°16' E 004°21'0 0.0
2016-Jul-19 08:30N 51°16' E 004°21'0 0.0
2016-Jul-19 07:33N 51°16' E 004°21'0 0.0
2016-Jul-19 04:33N 51°16' E 004°21'0 0.0
2016-Jul-19 03:33N 51°16' E 004°21'0 0.0
2016-Jul-19 02:33N 51°16' E 004°21'0 0.0
2016-Jul-19 01:33N 51°16' E 004°21'0 0.1
2016-Jul-19 00:33N 51°16' E 004°21'5 5.1
2016-Jul-18 23:34N 51°21' E 004°17'1 0.5
2016-Jul-18 22:33N 51°21' E 004°16'9 9.3
2016-Jul-18 21:33N 51°23' E 004°02'9 9.3
2016-Jul-18 20:33N 51°21' E 003°48'1010.2
2016-Jul-18 19:34N 51°25' E 003°33'1111.2
2016-Jul-18 18:33N 51°25' E 003°15'1111.2
2016-Jul-18 17:34N 51°23' E 002°57'1110.8
2016-Jul-18 16:33N 51°22' E 002°40'4 3.7
2016-Jul-18 15:33N 51°25' E 002°37'0 0.1
2016-Jul-18 14:33N 51°25' E 002°37'0 0.0
2016-Jul-18 13:33N 51°25' E 002°37'0 0.0
2016-Jul-18 12:33N 51°25' E 002°37'0 0.0
2016-Jul-18 11:33N 51°25' E 002°37'0 0.0
2016-Jul-18 10:33N 51°25' E 002°37'0 0.1
2016-Jul-18 09:33N 51°25' E 002°37'0 0.0
2016-Jul-18 08:33N 51°25' E 002°37'0 0.0
2016-Jul-18 07:33N 51°25' E 002°37'0 0.0
2016-Jul-18 06:33N 51°25' E 002°37'0 0.0
2016-Jul-18 05:33N 51°25' E 002°37'0 0.0
2016-Jul-18 04:33N 51°25' E 002°37'0 0.2
2016-Jul-18 03:33N 51°25' E 002°37'0 0.0
2016-Jul-18 02:33N 51°25' E 002°37'0 0.0
2016-Jul-18 01:33N 51°25' E 002°37'0 0.0
2016-Jul-18 00:33N 51°25' E 002°37'0 0.0
2016-Jul-17 23:33N 51°25' E 002°37'0 0.0
2016-Jul-17 22:33N 51°25' E 002°37'0 0.0
2016-Jul-17 21:06N 51°25' E 002°37'0 0.1
2016-Jul-17 19:30N 51°25' E 002°37'0 0.0
2016-Jul-17 18:18N 51°25' E 002°37'0 0.0
2016-Jul-17 17:27N 51°25' E 002°37'0 0.2
2016-Jul-17 16:27N 51°25' E 002°37'0 0.0
2016-Jul-17 15:33N 51°25' E 002°37'0 0.0
2016-Jul-17 13:27N 51°25' E 002°37'0 0.0
2016-Jul-17 12:22N 51°25' E 002°37'2 2.9
2016-Jul-17 11:33N 51°24' E 002°35'1413.9
2016-Jul-17 10:33N 51°17' E 002°15'1414.2
2016-Jul-17 09:33N 51°11' E 001°55'1413.9
2016-Jul-17 08:34N 51°02' E 001°38'1312.9
2016-Jul-17 07:33N 50°52' E 001°25'5111.5
2016-Jul-17 03:09N 50°24' E 000°18'711.9
2016-Jul-17 02:33N 50°21' E 000°08'1211.6
2016-Jul-17 01:33N 50°17' W 000°09'  
Track history (hours):
 
Tides and Currents Weather Stations Pressure Air Temp Water Temp Dewpoint Dewpoint Depression Visibility Wind Speed Wind Dir Waves Ship Positions

Iblea

Last reported at 2016-Jul-27 01:23 UTC. Time now 2016-Jul-27 09:38 UTC.
Position N 37°17' E 006°28'.

Length 176 m; draft 10.3 m.

Type: Ship. MMSI: 247087700.

Date/timePositionNaut miles runAvg speedWind from/ knotsBaromVisibWave heightAir tempDewpointWater temp
2016-Jul-27 01:23N 37°17' E 006°28'11713.2
2016-Jul-26 16:33N 37°07' E 004°02'1312.7
2016-Jul-26 15:33N 37°06' E 003°46'1313.2
2016-Jul-26 14:33N 37°05' E 003°29'1313.5
2016-Jul-26 13:33N 37°03' E 003°13'1313.3
2016-Jul-26 12:33N 37°02' E 002°56'1312.9
2016-Jul-26 11:33N 36°60' E 002°40'1312.8
2016-Jul-26 10:33N 36°57' E 002°25'1812.9
2016-Jul-26 09:11N 36°53' E 002°03'812.7
2016-Jul-26 08:33N 36°51' E 001°53'1413.5
2016-Jul-26 07:32N 36°48' E 001°36'1413.6
2016-Jul-26 06:31N 36°45' E 001°20'1313.5
2016-Jul-26 05:33N 36°43' E 001°04'1313.1
2016-Jul-26 04:32N 36°40' E 000°47'1313.1
2016-Jul-26 03:33N 36°37' E 000°32'1513.4
2016-Jul-26 02:24N 36°34' E 000°13'1213.6
2016-Jul-26 01:33N 36°31' W 000°01'1313.4
2016-Jul-26 00:33N 36°29' W 000°17'1312.9
2016-Jul-25 23:33N 36°26' W 000°33'1313.1
2016-Jul-25 22:33N 36°23' W 000°49'1312.6
2016-Jul-25 21:33N 36°20' W 001°04'1312.6
2016-Jul-25 20:33N 36°18' W 001°20'3912.6
2016-Jul-25 17:29N 36°09' W 002°06'14613.0
2016-Jul-25 06:11N 35°59' W 005°07'914.6
2016-Jul-25 05:33N 35°59' W 005°18'2511.7
2016-Jul-25 03:26N 35°54' W 005°48'910.6
2016-Jul-25 02:33N 35°54' W 006°00'3711.1
2016-Jul-24 23:11N 35°59' W 006°46'1911.6
2016-Jul-24 21:31N 36°04' W 007°09'1212.5
2016-Jul-24 20:33N 36°07' W 007°24'1312.5
2016-Jul-24 19:32N 36°10' W 007°39'1512.8
2016-Jul-24 18:23N 36°13' W 007°57'9612.0
2016-Jul-24 10:22N 36°60' W 009°42'1413.2
2016-Jul-24 09:20N 37°13' W 009°46'1413.1
2016-Jul-24 08:16N 37°27' W 009°50'1013.2
2016-Jul-24 07:30N 37°36' W 009°53'1213.3
2016-Jul-24 06:33N 37°49' W 009°56'1313.1
2016-Jul-24 05:33N 38°01' W 009°60'1313.1
2016-Jul-24 04:33N 38°14' W 010°04'1413.6
2016-Jul-24 03:33N 38°27' W 010°07'1414.1
2016-Jul-24 02:33N 38°41' W 010°11'1313.3
2016-Jul-24 01:34N 38°54' W 010°11'2713.3
2016-Jul-23 23:30N 39°22' W 010°11'62112.9
2016-Jul-21 23:16N 49°06' W 005°17'1213.2
2016-Jul-21 22:21N 49°12' W 005°02'1113.3
2016-Jul-21 21:32N 49°18' W 004°47'1413.5
2016-Jul-21 20:32N 49°24' W 004°29'1312.5
2016-Jul-21 19:28N 49°31' W 004°12'1112.0
2016-Jul-21 18:33N 49°36' W 003°57'1212.1
2016-Jul-21 17:33N 49°42' W 003°40'1312.8
2016-Jul-21 16:33N 49°48' W 003°23'1414.2
2016-Jul-21 15:33N 49°55' W 003°04'1615.5
2016-Jul-21 14:33N 50°01' W 002°41'1816.1
2016-Jul-21 13:25N 50°06' W 002°14'6911.7
2016-Jul-21 07:33N 50°24' W 000°30'1312.5
2016-Jul-21 06:29N 50°28' W 000°10'1313.6
2016-Jul-21 05:34N 50°32' E 000°09'1414.2
2016-Jul-21 04:33N 50°35' E 000°31'1813.6
2016-Jul-21 03:13N 50°45' E 000°55'812.5
2016-Jul-21 02:33N 50°51' E 001°05'1111.4
2016-Jul-21 01:34N 50°59' E 001°18'1010.0
2016-Jul-21 00:34N 51°05' E 001°30'9 9.3
2016-Jul-20 23:33N 51°11' E 001°42'1111.3
2016-Jul-20 22:33N 51°20' E 001°52'1010.5
2016-Jul-20 21:33N 51°23' E 002°08'1212.4
2016-Jul-20 20:33N 51°22' E 002°28'1312.5
2016-Jul-20 19:33N 51°22' E 002°48'1212.4
2016-Jul-20 18:34N 51°24' E 003°07'1414.2
2016-Jul-20 17:33N 51°25' E 003°30'10 9.8
2016-Jul-20 16:33N 51°22' E 003°45'1110.9
2016-Jul-20 15:33N 51°26' E 004°01'8 8.1
2016-Jul-20 14:33N 51°22' E 004°13'7 7.2
2016-Jul-20 13:33N 51°17' E 004°20'0 0.5
2016-Jul-20 12:34N 51°16' E 004°21'1 0.5
2016-Jul-20 11:31N 51°16' E 004°21'0 0.0
2016-Jul-20 10:31N 51°16' E 004°21'0 0.0
2016-Jul-20 09:31N 51°16' E 004°21'0 0.0
2016-Jul-20 08:31N 51°16' E 004°21'0 0.0
2016-Jul-20 07:30N 51°16' E 004°21'0 0.0
2016-Jul-20 06:33N 51°16' E 004°21'0 0.0
2016-Jul-20 05:33N 51°16' E 004°21'0 0.0
2016-Jul-20 04:33N 51°16' E 004°21'0 0.0
2016-Jul-20 03:33N 51°16' E 004°21'0 0.0
2016-Jul-20 02:33N 51°16' E 004°21'0 0.0
2016-Jul-20 01:33N 51°16' E 004°21'0 0.0
2016-Jul-20 00:33N 51°16' E 004°21'0 0.0
2016-Jul-19 23:33N 51°16' E 004°21'0 0.0
2016-Jul-19 22:33N 51°16' E 004°21'0 0.0
2016-Jul-19 21:33N 51°16' E 004°21'0 0.0
2016-Jul-19 20:30N 51°16' E 004°21'0 0.0
2016-Jul-19 19:33N 51°16' E 004°21'0 0.0
2016-Jul-19 18:33N 51°16' E 004°21'0 0.0
2016-Jul-19 17:33N 51°16' E 004°21'0 0.0
2016-Jul-19 16:33N 51°16' E 004°21'0 0.0
2016-Jul-19 15:33N 51°16' E 004°21'0 0.0
2016-Jul-19 14:33N 51°16' E 004°21'0 0.0
2016-Jul-19 13:33N 51°16' E 004°21'0 0.0
2016-Jul-19 12:30N 51°16' E 004°21'0 0.0
2016-Jul-19 11:33N 51°16' E 004°21'0 0.0
2016-Jul-19 10:33N 51°16' E 004°21'0 0.0
2016-Jul-19 09:33N 51°16' E 004°21'0 0.0
2016-Jul-19 08:30N 51°16' E 004°21'0 0.0
2016-Jul-19 07:33N 51°16' E 004°21'0 0.0
2016-Jul-19 04:33N 51°16' E 004°21'0 0.0
2016-Jul-19 03:33N 51°16' E 004°21'0 0.0
2016-Jul-19 02:33N 51°16' E 004°21'0 0.0
2016-Jul-19 01:33N 51°16' E 004°21'0 0.1
2016-Jul-19 00:33N 51°16' E 004°21'5 5.1
2016-Jul-18 23:34N 51°21' E 004°17'1 0.5
2016-Jul-18 22:33N 51°21' E 004°16'9 9.3
2016-Jul-18 21:33N 51°23' E 004°02'9 9.3
2016-Jul-18 20:33N 51°21' E 003°48'1010.2
2016-Jul-18 19:34N 51°25' E 003°33'1111.2
2016-Jul-18 18:33N 51°25' E 003°15'1111.2
2016-Jul-18 17:34N 51°23' E 002°57'1110.8
2016-Jul-18 16:33N 51°22' E 002°40'4 3.7
2016-Jul-18 15:33N 51°25' E 002°37'0 0.1
2016-Jul-18 14:33N 51°25' E 002°37'0 0.0
2016-Jul-18 13:33N 51°25' E 002°37'0 0.0
2016-Jul-18 12:33N 51°25' E 002°37'0 0.0
2016-Jul-18 11:33N 51°25' E 002°37'0 0.0
2016-Jul-18 10:33N 51°25' E 002°37'0 0.1
2016-Jul-18 09:33N 51°25' E 002°37'0 0.0
2016-Jul-18 08:33N 51°25' E 002°37'0 0.0
2016-Jul-18 07:33N 51°25' E 002°37'0 0.0
2016-Jul-18 06:33N 51°25' E 002°37'0 0.0
2016-Jul-18 05:33N 51°25' E 002°37'0 0.0
2016-Jul-18 04:33N 51°25' E 002°37'0 0.2
2016-Jul-18 03:33N 51°25' E 002°37'0 0.0
2016-Jul-18 02:33N 51°25' E 002°37'0 0.0
2016-Jul-18 01:33N 51°25' E 002°37'0 0.0
2016-Jul-18 00:33N 51°25' E 002°37'0 0.0
2016-Jul-17 23:33N 51°25' E 002°37'0 0.0
2016-Jul-17 22:33N 51°25' E 002°37'0 0.0
2016-Jul-17 21:06N 51°25' E 002°37'0 0.1
2016-Jul-17 19:30N 51°25' E 002°37'0 0.0
2016-Jul-17 18:18N 51°25' E 002°37'0 0.0
2016-Jul-17 17:27N 51°25' E 002°37'0 0.2
2016-Jul-17 16:27N 51°25' E 002°37'0 0.0
2016-Jul-17 15:33N 51°25' E 002°37'0 0.0
2016-Jul-17 13:27N 51°25' E 002°37'0 0.0
2016-Jul-17 12:22N 51°25' E 002°37'2 2.9
2016-Jul-17 11:33N 51°24' E 002°35'1413.9
2016-Jul-17 10:33N 51°17' E 002°15'1414.2
2016-Jul-17 09:33N 51°11' E 001°55'1413.9
2016-Jul-17 08:34N 51°02' E 001°38'1312.9
2016-Jul-17 07:33N 50°52' E 001°25'5111.5
2016-Jul-17 03:09N 50°24' E 000°18'711.9
2016-Jul-17 02:33N 50°21' E 000°08'1211.6
2016-Jul-17 01:33N 50°17' W 000°09'  

Dump ship's entire track history